• Join FlightAware (Why Join?)
  • Login
  • US Flag 
02:13AM EDT


 

Airport Tracker/Info


-or-


 

Live Flight TrackerFlight Track Log ✈ VH-MWO ✈ 27-Jun-2013 ✈ YYAL - YPJT / JAD

Flight Track Log - Related Links

Times and Time Zones

All times are in EDT time to prevent confusion due to time zone crossing. See the VH-MWO flight status page for this flight to view local times or setup timezone preferences in your user account.

Time Position Orientation Groundspeed Altitude Reporting Facility
EDT Latitude Longitude Course Direction KTS MPH feet Rate Location/Type
02:50AM -28.7023 116.6911 179° South 21,000  Level Aus ATC (Calculated)
02:50AM -28.7614 116.6938 180° South 21,000 -720 Level Aus ATC (Calculated)
02:52AM -28.8287 116.6969 178° South  Level FlightAware Approximate
02:52AM -28.8742 116.6990 180° South 21,000  Level Aus ATC (Calculated)
02:53AM -28.8917 116.6998 178° South  Level FlightAware Approximate
02:53AM -28.8742 116.6990 181° South 21,000  Level Aus ATC (Calculated)
02:55AM -28.9972 116.7047 178° South  Level FlightAware Approximate
02:55AM -29.0355 116.7065 190° South 21,000  Level Aus ATC (Calculated)
02:57AM -29.1300 116.7109 178° South  Level FlightAware Approximate
02:58AM -29.1931 116.7138 178° South  Level FlightAware Approximate
02:58AM -29.0810 116.6969 178° South 245 282 15,200  Level Aus ATC (RADAR)
02:59AM -29.1289 116.7090 168° South 250 288 15,200  Level Aus ATC (RADAR)
02:59AM -29.1798 116.7100 179° South 245 282 15,200  Level Aus ATC (RADAR)
03:00AM -29.2145 116.7118 177° South 248 285 15,200  Level Aus ATC (RADAR)
03:00AM -29.2545 116.7140 177° South 247 284 15,200  Level Aus ATC (RADAR)
03:01AM -29.3181 116.7175 177° South 248 285 15,200  Level Aus ATC (RADAR)
03:02AM -29.3582 116.7186 179° South 247 284 15,200  Level Aus ATC (RADAR)
03:03AM -29.4211 116.7209 178° South 247 284 15,200  Level Aus ATC (RADAR)
03:04AM -29.4907 116.7265 176° South 251 289 15,200  Level Aus ATC (RADAR)
03:04AM -29.5306 116.7269 179° South 249 287 15,200  Level Aus ATC (RADAR)
03:05AM -29.5755 116.7283 178° South 244 281 15,200  Level Aus ATC (RADAR)
03:06AM -29.6319 116.7319 177° South 240 276 15,200  Level Aus ATC (RADAR)
03:07AM -29.6927 116.7336 179° South 236 272 15,200  Level Aus ATC (RADAR)
03:08AM -29.7645 116.7372 177° South 234 269 15,200 -180 Level Aus ATC (RADAR)
03:08AM -29.8020 116.7450 177° South 229 264 15,000  Descending FlightAware
03:09AM -29.8195 116.7404 177° South 237 273 15,200  Climbing Aus ATC (RADAR)
03:09AM -29.8470 116.7470 178° South 230 265 15,000 -180 Descending FlightAware
03:10AM -29.8940 116.7490 178° South 228 262 15,000  Level FlightAware
03:11AM -29.9410 116.7510 178° South 229 264 15,000  Level FlightAware
03:11AM -29.9850 116.7530 178° South 228 262 15,000  Level FlightAware
03:12AM -30.0320 116.7550 178° South 229 264 15,000 120 Level FlightAware
03:13AM -30.0723 116.7545 178° South 238 274 15,200  Climbing Aus ATC (RADAR)
03:13AM -30.0780 116.7570 178° South 228 262 15,000 -240 Descending FlightAware
03:13AM -30.1250 116.7590 178° South 228 262 15,000  Level FlightAware
03:14AM -30.1730 116.7610 178° South 229 264 15,000  Level FlightAware
03:14AM -30.1970 116.7620 178° South 229 264 15,000  Level FlightAware
03:15AM -30.2420 116.7650 177° South 229 264 15,000 120 Level FlightAware
03:16AM -30.2802 116.7640 177° South 236 272 15,200 120 Climbing Aus ATC (RADAR)
03:16AM -30.3185 116.7654 178° South 235 270 15,200 -360 Level Aus ATC (RADAR)
03:16AM -30.3180 116.7680 178° South 229 264 15,000 -240 Descending FlightAware
03:17AM -30.3740 116.7710 177° South 229 264 15,000  Level FlightAware
03:18AM -30.4110 116.7720 177° South 230 265 15,000 240 Level FlightAware
03:18AM -30.4230 116.7705 177° South 237 273 15,200  Climbing Aus ATC (RADAR)
03:19AM -30.4600 116.7740 178° South 230 265 15,000 -180 Descending FlightAware
03:19AM -30.5120 116.7770 177° South 229 264 15,000  Level FlightAware
03:20AM -30.5540 116.7790 178° South 229 264 15,000  Level FlightAware
03:21AM -30.5980 116.7800 179° South 228 262 15,000  Level FlightAware
03:21AM -30.6090 116.7760 197° South 226 260 15,000 180 Level FlightAware
03:21AM -30.6491 116.7559 197° South 233 268 15,200  Climbing Aus ATC (RADAR)
03:22AM -30.6560 116.7560 197° South 226 260 15,000  Descending FlightAware
03:22AM -30.6899 116.7398 197° South 233 268 15,200  Climbing Aus ATC (RADAR)
03:22AM -30.7040 116.7360 197° South 225 259 15,000  Descending FlightAware
03:23AM -30.7407 116.7182 197° South 233 268 15,200  Climbing Aus ATC (RADAR)
03:23AM -30.7430 116.7200 197° South 227 261 15,000 -300 Descending FlightAware
03:24AM -30.7800 116.7040 200° South 228 262 15,000  Level FlightAware
03:24AM -30.8230 116.6870 200° South 226 260 15,000 240 Level FlightAware
03:24AM -30.8334 116.6808 200° South 236 272 15,200  Climbing Aus ATC (RADAR)
03:25AM -30.8740 116.6660 199° South 225 259 15,000 -180 Descending FlightAware
03:26AM -30.9120 116.6500 200° South 226 260 15,000  Level FlightAware
03:27AM -30.9650 116.6280 200° South 226 260 15,000  Level FlightAware
03:27AM -31.0070 116.6110 199° South 226 260 15,000  Level FlightAware
03:28AM -31.0470 116.5940 200° South 225 259 15,000  Level FlightAware
03:29AM -31.0920 116.5750 200° South 225 259 15,000  Level FlightAware
03:29AM -31.1330 116.5580 200° South 228 262 15,000 240 Level FlightAware
03:29AM -31.1347 116.5570 200° South 235 270 15,200 300 Climbing Aus ATC (RADAR)
03:30AM -31.1707 116.5420 200° South 236 272 15,200  Level Aus ATC (RADAR)
03:30AM -31.2070 116.5271 199° South 238 274 15,200  Level Aus ATC (RADAR)
03:31AM -31.2382 116.5144 199° South 237 273 15,200 -180 Level Aus ATC (RADAR)
03:32AM -31.3000 116.4890 199° South 236 272 15,000 -120 Descending FlightAware
03:33AM -31.3410 116.4720 200° South 228 262 15,000  Level FlightAware
03:33AM -31.3760 116.4570 200° South 236 272 15,000 120 Level FlightAware
03:34AM -31.4186 116.4392 200° South 237 273 15,200  Climbing Aus ATC (RADAR)
03:34AM -31.4290 116.4350 200° South 237 273 15,000 -240 Descending FlightAware
03:35AM -31.4720 116.4180 199° South 237 273 15,000  Level FlightAware
03:35AM -31.4950 116.4040 207° Southwest 237 273 15,000 180 Level FlightAware
03:36AM -31.5201 116.3706 207° Southwest 235 270 15,200  Climbing Aus ATC (RADAR)
03:36AM -31.5240 116.3660 207° Southwest 233 268 15,000  Descending FlightAware
03:36AM -31.5492 116.3326 207° Southwest 231 266 15,200 -300 Climbing Aus ATC (RADAR)
03:36AM -31.5540 116.3280 207° Southwest 223 257 14,800 -1,860 Descending FlightAware
03:37AM -31.5860 116.2870 227° Southwest 220 253 13,600 -1,380 Descending FlightAware
03:38AM -31.6171 116.2479 227° Southwest 218 251 12,800 -1,380 Descending Aus ATC (RADAR)
03:38AM -31.6180 116.2480 227° Southwest 214 246 12,600 -1,800 Descending FlightAware
03:39AM -31.6460 116.2130 227° Southwest 221 254 11,600 -1,500 Descending FlightAware
03:39AM -31.6780 116.1730 227° Southwest 226 260 10,500 -1,500 Descending FlightAware
03:40AM -31.7090 116.1350 226° Southwest 231 266 9,500 -1,500 Descending FlightAware
03:40AM -31.7270 116.1120 227° Southwest 225 259 8,900 -1,440 Descending FlightAware
03:41AM -31.7490 116.0840 227° Southwest 223 257 8,200 -1,500 Descending FlightAware
03:41AM -31.7690 116.0560 230° Southwest 227 261 7,400 -1,500 Descending FlightAware
03:42AM -31.7740 116.0450 242° Southwest 226 260 7,200 -1,380 Descending FlightAware
03:42AM -31.7910 116.0090 241° Southwest 207 238 6,400 -1,380 Descending FlightAware
03:42AM -31.7960 115.9990 240° Southwest 205 236 6,200 -1,380 Descending FlightAware
03:43AM -31.8080 115.9760 238° Southwest 189 217 5,600 -1,440 Descending FlightAware
03:43AM -31.8220 115.9490 238° Southwest 196 226 4,900 -960 Descending FlightAware
03:43AM -31.8236 115.9460 238° Southwest 191 220 5,100 -1,200 Climbing Aus ATC (RADAR)
03:44AM -31.8290 115.9350 240° Southwest 200 230 4,600 -1,800 Descending FlightAware
03:44AM -31.8410 115.9110 240° Southwest 204 235 4,000 -1,140 Descending FlightAware
03:44AM -31.8560 115.8810 240° Southwest 212 244 3,600 -900 Descending FlightAware
03:45AM -31.8690 115.8560 239° Southwest 209 241 3,200 -900 Descending FlightAware
03:45AM -31.8790 115.8440 226° Southwest 212 244 3,000 -1,080 Descending FlightAware
03:46AM -31.9100 115.8450 178° South 213 245 2,400 -1,020 Descending FlightAware
03:46AM -31.9380 115.8500 171° South 210 242 2,000 -960 Descending FlightAware
03:47AM -31.9670 115.8540 173° South 205 236 1,500 -780 Descending FlightAware
03:47AM -31.9890 115.8530 182° South 198 228 1,300 -240 Descending FlightAware
03:48AM -32.0160 115.8510 184° South 194 223 1,300 -120 Level FlightAware
03:48AM -32.0410 115.8580 167° South 195 224 1,200 -240 Descending FlightAware
03:48AM -32.0600 115.8650 163° South 168 193 1,100 -480 Descending FlightAware
03:49AM -32.0670 115.8760 127° Southeast 141 162 900 -540 Descending FlightAware
03:49AM -32.0710 115.8940 105° East 101 116 700 -540 Descending FlightAware
03:50AM -32.0790 115.9010 143° Southeast 87 100 400 -540 Descending FlightAware
03:50AM -32.0928 115.8866 143° Southeast 76 87 100 -420 Descending Aus ATC (RADAR)
03:51AM -32.0920 115.8870 143° Southeast 72 83 -780 Descending FlightAware
03:51AM -32.0960 115.8790 239° Southwest 72 83  Level FlightAware